Time;durP1;ratioP1;P1;durP2;ratioP2;P2;SDS_P1;SDS_P2;PMS_P1;PMS_P2;Temp;Humidity;BMP_temperature;BMP_pressure;BME280_temperature;BME280_humidity;BME280_pressure;Samples;Min_cycle;Max_cycle;Signal;HPM_P1;HPM_P2
2021/12/11 00:02:22;;;;;;;;;;;;;;;-0.68;82.75;97049.45;1650788;84;20220;-87
2021/12/11 00:04:56;;;;;;;;;;;;;;;-0.82;82.71;97060.00;1646113;86;25586;-86
2021/12/11 00:07:22;;;;;;;;;;;;;;;-0.98;82.67;97063.25;1654797;85;22009;-87
2021/12/11 00:09:53;;;;;;;;;;;;;;;-1.06;82.60;97069.66;1663939;84;25978;-86
2021/12/11 00:12:20;;;;;;;;;;;;;;;-0.91;82.61;97073.63;1675840;83;25148;-87
2021/12/11 00:14:48;;;;;;;;;;;;;;;-0.70;82.66;97074.81;1699941;83;20222;-87
2021/12/11 00:17:19;;;;;;;;;;;;;;;-0.53;82.70;97075.69;1702154;83;25366;-87
2021/12/11 00:19:46;;;;;;;;;;;;;;;-0.35;82.77;97078.28;1691772;82;22084;-87
2021/12/11 00:22:14;;;;;;;;;;;;;;;-0.22;82.84;97078.89;1696189;83;26093;-87
2021/12/11 00:24:40;;;;;;;;;;;;;;;-0.36;82.86;97072.31;1694528;82;24406;-87
2021/12/11 00:27:08;;;;;;;;;;;;;;;-0.51;82.88;97073.05;1697731;83;20262;-86
2021/12/11 00:29:38;;;;;;;;;;;;;;;-0.46;82.91;97081.37;1699526;82;25815;-87
2021/12/11 00:32:06;;;;;;;;;;;;;;;-0.47;82.94;97079.25;1699683;83;22026;-87
2021/12/11 00:34:32;;;;;;;;;;;;;;;-0.46;82.94;97082.20;1705577;82;25994;-87
2021/12/11 00:37:09;;;;;;;;;;;;;;;-0.40;82.93;97087.51;1703408;83;24427;-87
2021/12/11 00:39:48;;;;;;;;;;;;;;;-0.30;82.95;97082.30;1703769;81;20166;-87
2021/12/11 00:42:23;;;;;;;;;;;;;;;-0.31;82.93;97089.63;1698022;83;25061;-87
2021/12/11 00:44:52;;;;;;;;;;;;;;;-0.45;82.91;97090.30;1700379;82;20192;-87
2021/12/11 00:47:20;;;;;;;;;;;;;;;-0.56;82.91;97095.56;1695644;82;26161;-87
2021/12/11 00:49:57;;;;;;;;;;;;;;;-0.49;82.95;97095.19;1698778;83;24442;-88
2021/12/11 00:52:31;;;;;;;;;;;;;;;-0.39;82.99;97102.48;1701991;83;20273;-88
2021/12/11 00:54:58;;;;;;;;;;;;;;;-0.37;83.02;97109.19;1700807;82;25055;-87
2021/12/11 00:57:24;;;;;;;;;;;;;;;-0.37;83.02;97114.33;1650385;85;22564;-87
2021/12/11 01:00:01;;;;;;;;;;;;;;;-0.40;83.03;97119.63;1643300;86;26190;-88
2021/12/11 01:02:32;;;;;;;;;;;;;;;-0.44;83.04;97125.83;1652800;85;20232;-87
2021/12/11 01:04:58;;;;;;;;;;;;;;;-0.56;83.04;97131.09;1621229;86;20312;-87
2021/12/11 01:07:32;;;;;;;;;;;;;;;-0.60;83.03;97131.30;1700873;82;25707;-87
2021/12/11 01:09:59;;;;;;;;;;;;;;;-0.59;83.06;97139.36;1702012;83;22839;-87
2021/12/11 01:12:30;;;;;;;;;;;;;;;-0.52;83.12;97145.45;1702680;83;26091;-86
2021/12/11 01:15:02;;;;;;;;;;;;;;;-0.42;83.16;97151.81;1699873;82;24467;-86
2021/12/11 01:17:41;;;;;;;;;;;;;;;-0.46;83.18;97157.17;1691812;83;20228;-86
2021/12/11 01:20:04;;;;;;;;;;;;;;;-0.47;83.20;97164.50;1688333;83;26065;-86
2021/12/11 01:22:35;;;;;;;;;;;;;;;-0.47;83.24;97164.50;1644030;86;22673;-86
2021/12/11 01:25:28;;;;;;;;;;;;;;;-0.49;83.25;97166.30;1633971;86;21297;-86
2021/12/11 01:27:56;;;;;;;;;;;;;;;-0.48;83.28;97171.38;1637985;86;24479;-86
2021/12/11 01:30:25;;;;;;;;;;;;;;;-0.59;83.28;97167.17;1691195;83;20162;-86
2021/12/11 01:32:51;;;;;;;;;;;;;;;-0.69;83.25;97166.38;1703345;82;24970;-86
2021/12/11 01:35:18;;;;;;;;;;;;;;;-0.74;83.21;97167.05;1677931;83;22160;-87
2021/12/11 01:37:47;;;;;;;;;;;;;;;-0.81;83.17;97175.92;1715288;81;22481;-86
2021/12/11 01:40:14;;;;;;;;;;;;;;;-0.88;83.13;97181.36;1698424;82;25289;-87
2021/12/11 01:42:43;;;;;;;;;;;;;;;-0.84;83.13;97184.61;1701658;82;20174;-86
2021/12/11 01:45:15;;;;;;;;;;;;;;;-0.81;83.15;97191.33;1699283;83;25101;-87
2021/12/11 01:47:50;;;;;;;;;;;;;;;-0.86;83.16;97184.66;1704767;83;22565;-87
2021/12/11 01:50:14;;;;;;;;;;;;;;;-0.95;83.15;97191.50;1685926;83;26064;-86
2021/12/11 01:52:41;;;;;;;;;;;;;;;-0.99;83.14;97191.27;1675600;84;24377;-86
2021/12/11 01:55:09;;;;;;;;;;;;;;;-0.84;83.17;97192.31;1697447;83;20250;-85
2021/12/11 01:57:38;;;;;;;;;;;;;;;-0.81;83.21;97192.16;1695827;83;24953;-87
2021/12/11 02:00:09;;;;;;;;;;;;;;;-0.77;83.27;97194.16;1696879;83;22092;-87
2021/12/11 02:02:37;;;;;;;;;;;;;;;-0.62;83.35;97201.17;1704796;83;25957;-86
2021/12/11 02:05:11;;;;;;;;;;;;;;;-0.53;83.43;97200.30;1696865;83;24429;-87
2021/12/11 02:07:45;;;;;;;;;;;;;;;-0.38;83.55;97202.61;1687303;83;20440;-86
2021/12/11 02:10:25;;;;;;;;;;;;;;;-0.31;83.61;97209.59;1690526;83;25707;-86
2021/12/11 02:12:52;;;;;;;;;;;;;;;-0.19;83.72;97218.03;1700741;83;21975;-86
2021/12/11 02:15:30;;;;;;;;;;;;;;;-0.12;83.78;97220.25;1697458;82;26025;-86
2021/12/11 02:17:56;;;;;;;;;;;;;;;-0.15;83.79;97222.11;1706343;82;25204;-86
2021/12/11 02:20:28;;;;;;;;;;;;;;;-0.21;83.81;97226.25;1660954;84;20272;-87
2021/12/11 02:22:54;;;;;;;;;;;;;;;-0.15;83.83;97229.83;1689483;83;25084;-87
2021/12/11 02:25:22;;;;;;;;;;;;;;;-0.08;83.86;97233.34;1699983;83;22675;-86
2021/12/11 02:27:53;;;;;;;;;;;;;;;-0.06;83.86;97234.56;1692481;83;25928;-86
2021/12/11 02:30:24;;;;;;;;;;;;;;;-0.06;83.84;97235.84;1699680;82;24534;-86
2021/12/11 02:32:58;;;;;;;;;;;;;;;-0.04;83.81;97228.88;1692226;82;20266;-88
2021/12/11 02:35:32;;;;;;;;;;;;;;;0.03;83.84;97232.84;1670144;82;24751;-87
2021/12/11 02:38:07;;;;;;;;;;;;;;;0.05;83.85;97240.48;1702879;82;22273;-87
2021/12/11 02:40:32;;;;;;;;;;;;;;;0.08;83.91;97245.02;1697491;83;26218;-87
2021/12/11 02:43:00;;;;;;;;;;;;;;;0.11;83.91;97248.72;1698190;82;24735;-87
2021/12/11 02:45:28;;;;;;;;;;;;;;;0.11;83.95;97242.29;1700640;83;20519;-87
2021/12/11 02:47:56;;;;;;;;;;;;;;;0.06;83.94;97248.55;1706249;83;25149;-87
2021/12/11 02:50:34;;;;;;;;;;;;;;;0.02;83.95;97254.31;1706479;82;22001;-87
2021/12/11 02:52:59;;;;;;;;;;;;;;;0.04;83.97;97259.39;1662434;84;26060;-87
2021/12/11 02:55:33;;;;;;;;;;;;;;;0.11;84.01;97263.34;1614474;87;24540;-86
2021/12/11 02:58:00;;;;;;;;;;;;;;;0.20;84.02;97263.74;1629414;86;20380;-87
2021/12/11 03:00:29;;;;;;;;;;;;;;;0.27;84.00;97272.81;1627327;86;25938;-87
2021/12/11 03:03:02;;;;;;;;;;;;;;;0.29;84.01;97277.89;1702241;83;21924;-88
2021/12/11 03:05:34;;;;;;;;;;;;;;;0.20;84.00;97275.77;1692336;83;25955;-86
2021/12/11 03:07:54;;;;;;;;;;;;;;;0.19;84.02;97279.23;1708942;82;24426;-87
2021/12/11 03:10:22;;;;;;;;;;;;;;;0.24;84.01;97283.71;1701291;83;20561;-87
2021/12/11 03:12:55;;;;;;;;;;;;;;;0.27;84.01;97285.67;1697418;82;24967;-88
2021/12/11 03:15:20;;;;;;;;;;;;;;;0.31;84.03;97288.51;1687917;83;22148;-87
2021/12/11 03:17:47;;;;;;;;;;;;;;;0.38;84.04;97286.48;1653572;83;26618;-87
2021/12/11 03:20:15;;;;;;;;;;;;;;;0.40;84.06;97285.94;1698072;83;24659;-88
2021/12/11 03:22:43;;;;;;;;;;;;;;;0.37;84.08;97291.25;1714698;82;20369;-87
2021/12/11 03:25:16;;;;;;;;;;;;;;;0.39;84.08;97296.68;1702513;83;25657;-86
2021/12/11 03:27:43;;;;;;;;;;;;;;;0.45;84.10;97299.87;1702423;82;21482;-86
2021/12/11 03:30:11;;;;;;;;;;;;;;;0.44;84.10;97297.75;1694946;83;25416;-86
2021/12/11 03:32:37;;;;;;;;;;;;;;;0.46;84.13;97299.80;1698082;82;24463;-86
2021/12/11 03:35:05;;;;;;;;;;;;;;;0.57;84.17;97301.86;1690374;83;20593;-86
2021/12/11 03:37:31;;;;;;;;;;;;;;;0.62;84.19;97297.32;1701737;83;25628;-86
2021/12/11 03:39:57;;;;;;;;;;;;;;;0.64;84.21;97296.80;1706019;82;21916;-86
2021/12/11 03:42:25;;;;;;;;;;;;;;;0.68;84.21;97299.61;1705726;83;21552;-86
2021/12/11 03:44:53;;;;;;;;;;;;;;;0.71;84.23;97300.28;1693703;83;23894;-85
2021/12/11 03:47:28;;;;;;;;;;;;;;;0.71;84.23;97309.29;1703027;83;20464;-86
2021/12/11 03:49:52;;;;;;;;;;;;;;;0.64;84.23;97308.39;1704643;83;24957;-85
2021/12/11 03:52:19;;;;;;;;;;;;;;;0.60;84.26;97312.83;1694688;83;21932;-85
2021/12/11 03:54:46;;;;;;;;;;;;;;;0.61;84.28;97313.67;1695613;83;26030;-88
2021/12/11 03:57:15;;;;;;;;;;;;;;;0.62;84.29;97314.89;1692379;83;24553;-86
2021/12/11 03:59:42;;;;;;;;;;;;;;;0.63;84.31;97317.85;1696689;83;20402;-86
2021/12/11 04:02:10;;;;;;;;;;;;;;;0.59;84.27;97313.77;1688088;83;24986;-87
2021/12/11 04:04:44;;;;;;;;;;;;;;;0.61;84.27;97321.39;1701059;83;22036;-86
2021/12/11 04:07:14;;;;;;;;;;;;;;;0.57;84.23;97318.59;1647909;83;21253;-86
2021/12/11 04:09:41;;;;;;;;;;;;;;;0.46;84.19;97320.39;1698572;83;24915;-86
2021/12/11 04:12:08;;;;;;;;;;;;;;;0.47;84.19;97322.52;1698645;82;20389;-88
2021/12/11 04:14:38;;;;;;;;;;;;;;;0.45;84.17;97320.45;1709229;82;25107;-87
2021/12/11 04:17:05;;;;;;;;;;;;;;;0.39;84.10;97322.41;1697035;83;22125;-88
2021/12/11 04:19:34;;;;;;;;;;;;;;;0.39;84.07;97323.70;1652669;85;26192;-88
2021/12/11 04:22:02;;;;;;;;;;;;;;;0.40;84.06;97324.09;1634137;87;24562;-85
2021/12/11 04:24:31;;;;;;;;;;;;;;;0.36;84.04;97324.31;1648773;85;20152;-86
2021/12/11 04:26:58;;;;;;;;;;;;;;;0.32;84.02;97322.80;1626152;87;26133;-88
2021/12/11 04:29:30;;;;;;;;;;;;;;;0.31;83.99;97325.81;1631090;86;21983;-86
2021/12/11 04:31:57;;;;;;;;;;;;;;;0.23;83.95;97325.33;1647169;85;26106;-86
2021/12/11 04:34:23;;;;;;;;;;;;;;;0.16;83.90;97322.67;1629593;86;24644;-86
2021/12/11 04:36:56;;;;;;;;;;;;;;;0.14;83.88;97327.05;1661045;84;20697;-86
2021/12/11 04:39:23;;;;;;;;;;;;;;;0.17;83.90;97328.63;1650915;85;25081;-85
2021/12/11 04:41:58;;;;;;;;;;;;;;;0.20;83.91;97336.22;1654289;85;21604;-86
2021/12/11 04:44:24;;;;;;;;;;;;;;;0.20;83.93;97342.20;1633159;85;26027;-89
2021/12/11 04:46:51;;;;;;;;;;;;;;;0.24;83.98;97342.44;1611699;87;24423;-87
2021/12/11 04:49:28;;;;;;;;;;;;;;;0.30;84.02;97337.01;1636231;86;20223;-87
2021/12/11 04:52:00;;;;;;;;;;;;;;;0.36;84.10;97343.16;1643109;86;25013;-86
2021/12/11 04:54:45;;;;;;;;;;;;;;;0.35;84.13;97344.06;1693301;83;22096;-86
2021/12/11 04:57:34;;;;;;;;;;;;;;;0.36;84.18;97343.16;1698000;82;25999;-86
2021/12/11 05:07:38;;;;;;;;;;;;;;;0.52;84.35;97357.88;1701308;83;22083;-86
2021/12/11 05:10:06;;;;;;;;;;;;;;;0.55;84.43;97357.72;1682829;83;26684;-86
2021/12/11 05:12:34;;;;;;;;;;;;;;;0.59;84.48;97366.98;1695656;83;24667;-87
2021/12/11 05:14:54;;;;;;;;;;;;;;;0.51;84.49;97364.76;1693837;83;20424;-87
2021/12/11 05:17:21;;;;;;;;;;;;;;;0.42;84.49;97371.63;1704635;82;24943;-87
2021/12/11 05:19:48;;;;;;;;;;;;;;;0.44;84.55;97365.14;1697702;82;22099;-87
2021/12/11 05:22:16;;;;;;;;;;;;;;;0.44;84.59;97363.37;1703602;82;26000;-88
2021/12/11 05:24:47;;;;;;;;;;;;;;;0.48;84.65;97367.94;1701998;82;24699;-87
2021/12/11 05:27:14;;;;;;;;;;;;;;;0.51;84.70;97364.76;1698972;82;20694;-87
2021/12/11 05:29:40;;;;;;;;;;;;;;;0.61;84.77;97374.16;1693565;83;25060;-88
2021/12/11 05:32:15;;;;;;;;;;;;;;;0.74;84.83;97370.11;1701635;83;22141;-87
2021/12/11 05:34:42;;;;;;;;;;;;;;;0.84;84.89;97372.63;1699308;83;26032;-87
2021/12/11 05:37:09;;;;;;;;;;;;;;;0.88;84.96;97372.85;1694337;83;25113;-87
2021/12/11 05:39:36;;;;;;;;;;;;;;;0.95;85.00;97374.68;1698467;83;20685;-87
2021/12/11 05:42:03;;;;;;;;;;;;;;;1.00;85.04;97380.44;1699879;83;25069;-88
2021/12/11 05:44:29;;;;;;;;;;;;;;;1.06;85.09;97383.56;1700849;82;22127;-88
2021/12/11 05:46:55;;;;;;;;;;;;;;;1.01;85.10;97392.42;1699896;83;26008;-87
2021/12/11 05:49:23;;;;;;;;;;;;;;;0.88;85.06;97396.48;1700784;82;24623;-86
2021/12/11 05:51:52;;;;;;;;;;;;;;;0.76;85.04;97399.21;1697805;83;20230;-86
2021/12/11 05:54:21;;;;;;;;;;;;;;;0.74;85.01;97404.42;1693843;83;26013;-86
2021/12/11 05:56:47;;;;;;;;;;;;;;;0.74;85.01;97399.73;1718913;82;21860;-86
2021/12/11 05:59:15;;;;;;;;;;;;;;;0.63;84.97;97405.83;1700612;83;26052;-86
2021/12/11 06:01:43;;;;;;;;;;;;;;;0.54;84.93;97401.95;1691184;83;24503;-86
2021/12/11 06:04:11;;;;;;;;;;;;;;;0.67;84.93;97412.05;1685590;82;20328;-86
2021/12/11 06:06:38;;;;;;;;;;;;;;;0.74;84.94;97395.86;1696363;82;25008;-86
2021/12/11 06:09:07;;;;;;;;;;;;;;;0.68;84.91;97392.28;1700518;83;20243;-87
2021/12/11 06:11:34;;;;;;;;;;;;;;;0.62;84.90;97408.02;1705367;83;25997;-86
2021/12/11 06:14:05;;;;;;;;;;;;;;;0.54;84.91;97407.55;1700936;82;25057;-86
2021/12/11 06:16:31;;;;;;;;;;;;;;;0.54;84.93;97407.10;1699997;82;20512;-87
2021/12/11 06:19:02;;;;;;;;;;;;;;;0.63;84.96;97409.23;1700517;83;25246;-88
2021/12/11 06:21:32;;;;;;;;;;;;;;;0.64;85.00;97413.48;1780877;79;20513;-87
2021/12/11 06:24:03;;;;;;;;;;;;;;;0.57;85.02;97410.81;1777352;80;26101;-87
2021/12/11 06:26:31;;;;;;;;;;;;;;;0.55;85.03;97421.62;1782879;79;24533;-87
2021/12/11 06:28:54;;;;;;;;;;;;;;;0.67;85.08;97427.94;1773870;78;20465;-87
2021/12/11 06:31:21;;;;;;;;;;;;;;;0.82;85.14;97426.77;1780307;80;25880;-87
2021/12/11 06:33:48;;;;;;;;;;;;;;;0.89;85.18;97431.63;1780165;79;22024;-87
2021/12/11 06:36:16;;;;;;;;;;;;;;;0.84;85.18;97431.41;1778436;80;26600;-87
2021/12/11 06:38:43;;;;;;;;;;;;;;;0.93;85.24;97428.03;1782699;80;23829;-87
2021/12/11 06:41:11;;;;;;;;;;;;;;;0.97;85.27;97430.83;1781143;80;20230;-87
2021/12/11 06:43:39;;;;;;;;;;;;;;;0.88;85.30;97435.95;1775776;79;25828;-87
2021/12/11 06:46:06;;;;;;;;;;;;;;;0.87;85.34;97451.05;1785252;80;22023;-87
2021/12/11 06:48:32;;;;;;;;;;;;;;;0.83;85.33;97463.66;1784329;78;26173;-87
2021/12/11 06:50:58;;;;;;;;;;;;;;;0.86;85.36;97464.82;1773880;80;24537;-86
2021/12/11 06:53:35;;;;;;;;;;;;;;;0.84;85.34;97469.20;1782393;80;20216;-87
2021/12/11 06:56:04;;;;;;;;;;;;;;;0.76;85.31;97470.02;1781449;80;25648;-86
2021/12/11 06:58:31;;;;;;;;;;;;;;;0.83;85.32;97482.97;1775470;79;21921;-86
2021/12/11 07:00:59;;;;;;;;;;;;;;;0.93;85.33;97485.50;1783582;79;26077;-87
2021/12/11 07:03:28;;;;;;;;;;;;;;;0.93;85.33;97495.80;1779576;80;24381;-87
2021/12/11 07:05:54;;;;;;;;;;;;;;;0.82;85.32;97497.59;1781784;80;20248;-87
2021/12/11 07:08:22;;;;;;;;;;;;;;;0.72;85.29;97507.09;1780543;80;24976;-87
2021/12/11 07:10:49;;;;;;;;;;;;;;;0.66;85.30;97516.37;1779153;79;22185;-87
2021/12/11 07:13:15;;;;;;;;;;;;;;;0.66;85.29;97516.37;1778451;79;26031;-87
2021/12/11 07:15:48;;;;;;;;;;;;;;;0.67;85.33;97524.48;1760402;80;20725;-87
2021/12/11 07:18:14;;;;;;;;;;;;;;;0.63;85.33;97531.97;1780670;80;20322;-87
2021/12/11 07:20:42;;;;;;;;;;;;;;;0.75;85.40;97540.44;1770327;80;24969;-87
2021/12/11 07:23:08;;;;;;;;;;;;;;;0.89;85.46;97544.50;1760729;80;22039;-86
2021/12/11 07:25:36;;;;;;;;;;;;;;;0.77;85.48;97544.60;1781795;80;20999;-87
2021/12/11 07:28:03;;;;;;;;;;;;;;;0.63;85.47;97550.83;1759750;80;25943;-87
2021/12/11 07:30:33;;;;;;;;;;;;;;;0.53;85.43;97539.72;1778458;80;20409;-87
2021/12/11 07:33:00;;;;;;;;;;;;;;;0.46;85.43;97552.02;1775312;80;25018;-87
2021/12/11 07:35:27;;;;;;;;;;;;;;;0.59;85.47;97559.60;1781487;80;22244;-87
2021/12/11 07:37:54;;;;;;;;;;;;;;;0.84;85.54;97561.45;1783112;80;25990;-87
2021/12/11 07:40:23;;;;;;;;;;;;;;;1.02;85.66;97553.36;1777636;79;25446;-87
2021/12/11 07:42:50;;;;;;;;;;;;;;;1.12;85.73;97557.17;1775333;78;20196;-87
2021/12/11 07:45:17;;;;;;;;;;;;;;;1.18;85.81;97556.89;1777402;80;25104;-87
2021/12/11 07:47:45;;;;;;;;;;;;;;;1.25;85.90;97563.89;1786217;79;22031;-87
2021/12/11 07:50:12;;;;;;;;;;;;;;;1.28;85.92;97572.75;1780258;80;25953;-87
2021/12/11 07:52:39;;;;;;;;;;;;;;;1.34;85.95;97568.61;1786240;80;24449;-87
2021/12/11 07:55:05;;;;;;;;;;;;;;;1.38;85.97;97577.86;1777510;80;20239;-87
2021/12/11 07:57:31;;;;;;;;;;;;;;;1.38;86.03;97571.41;1782578;80;25042;-87
2021/12/11 07:59:57;;;;;;;;;;;;;;;1.47;86.08;97583.89;1757687;80;20257;-87
2021/12/11 08:02:24;;;;;;;;;;;;;;;1.48;86.08;97587.28;1783542;80;26896;-87
2021/12/11 08:04:50;;;;;;;;;;;;;;;1.50;86.07;97590.63;1780195;80;24514;-87
2021/12/11 08:07:16;;;;;;;;;;;;;;;1.50;86.08;97597.08;1779673;79;20395;-86
2021/12/11 08:09:43;;;;;;;;;;;;;;;1.54;86.06;97603.75;1780243;80;26420;-86
2021/12/11 08:12:09;;;;;;;;;;;;;;;1.57;86.06;97603.62;1776796;80;22687;-86
2021/12/11 08:14:35;;;;;;;;;;;;;;;1.59;86.08;97616.81;1781232;80;26638;-86
2021/12/11 08:17:06;;;;;;;;;;;;;;;1.65;86.12;97611.81;1768122;80;25226;-86
2021/12/11 08:19:33;;;;;;;;;;;;;;;1.63;86.15;97612.36;1768789;80;20291;-87
2021/12/11 08:22:02;;;;;;;;;;;;;;;1.62;86.20;97615.39;1761252;80;22917;-87
2021/12/11 08:24:29;;;;;;;;;;;;;;;1.63;86.23;97618.81;1777244;78;22119;-87
2021/12/11 08:27:01;;;;;;;;;;;;;;;1.71;86.28;97619.72;1778730;79;26031;-86
2021/12/11 08:29:28;;;;;;;;;;;;;;;1.85;86.33;97630.23;1756577;80;24415;-86
2021/12/11 08:31:58;;;;;;;;;;;;;;;1.98;86.36;97639.03;1776192;80;20677;-86
2021/12/11 08:34:28;;;;;;;;;;;;;;;2.08;86.37;97638.97;1777164;80;24588;-86
2021/12/11 08:36:54;;;;;;;;;;;;;;;2.14;86.38;97646.41;1779677;80;21987;-86
2021/12/11 08:39:21;;;;;;;;;;;;;;;2.16;86.37;97656.22;1780513;80;26044;-86
2021/12/11 08:41:48;;;;;;;;;;;;;;;2.16;86.37;97658.80;1772637;79;24572;-87
2021/12/11 08:44:20;;;;;;;;;;;;;;;2.18;86.40;97666.02;1780530;80;20197;-87
2021/12/11 08:46:45;;;;;;;;;;;;;;;2.15;86.40;97676.93;1783104;80;25168;-86
2021/12/11 08:49:13;;;;;;;;;;;;;;;2.21;86.42;97681.80;1779551;80;22256;-87
2021/12/11 08:51:40;;;;;;;;;;;;;;;2.17;86.43;97683.70;1780322;79;26067;-86
2021/12/11 08:54:07;;;;;;;;;;;;;;;2.11;86.43;97678.84;1782471;80;24428;-87
2021/12/11 08:56:35;;;;;;;;;;;;;;;2.23;86.44;97687.73;1773014;80;20474;-86
2021/12/11 08:59:03;;;;;;;;;;;;;;;2.33;86.47;97692.83;1778067;80;24515;-86
2021/12/11 09:01:31;;;;;;;;;;;;;;;2.45;86.51;97694.81;1758137;80;22755;-86
2021/12/11 09:04:10;;;;;;;;;;;;;;;2.55;86.52;97697.32;1779169;80;26068;-86
2021/12/11 09:06:37;;;;;;;;;;;;;;;2.68;86.51;97708.70;1777882;79;24644;-86
2021/12/11 09:09:05;;;;;;;;;;;;;;;2.68;86.50;97712.56;1780099;80;20209;-87
2021/12/11 09:11:33;;;;;;;;;;;;;;;2.65;86.46;97716.61;1777309;80;25041;-87
2021/12/11 09:14:04;;;;;;;;;;;;;;;2.76;86.47;97725.12;1783372;80;22093;-86
2021/12/11 09:16:32;;;;;;;;;;;;;;;2.83;86.43;97722.61;1780961;80;25997;-86
2021/12/11 09:19:00;;;;;;;;;;;;;;;2.86;86.39;97729.75;1756131;81;24567;-86
2021/12/11 09:21:28;;;;;;;;;;;;;;;2.88;86.39;97724.51;1779903;80;20220;-86
2021/12/11 09:24:08;;;;;;;;;;;;;;;2.83;86.37;97731.66;1771983;80;25807;-87
2021/12/11 09:26:37;;;;;;;;;;;;;;;2.77;86.31;97731.96;1773584;80;22896;-87
2021/12/11 09:29:12;;;;;;;;;;;;;;;2.80;86.28;97733.92;1740617;80;26064;-86
2021/12/11 09:31:41;;;;;;;;;;;;;;;2.92;86.27;97734.61;1754326;80;24557;-87
2021/12/11 09:34:11;;;;;;;;;;;;;;;2.96;86.20;97737.86;1734978;81;20569;-87
2021/12/11 09:36:39;;;;;;;;;;;;;;;2.94;86.12;97741.00;1778082;79;24978;-87
2021/12/11 09:39:12;;;;;;;;;;;;;;;2.87;86.02;97748.22;1771706;80;22006;-87
2021/12/11 09:41:36;;;;;;;;;;;;;;;2.85;85.94;97747.91;1760467;80;26002;-87
2021/12/11 09:44:13;;;;;;;;;;;;;;;2.84;85.89;97752.69;1750388;80;24415;-87
2021/12/11 09:46:43;;;;;;;;;;;;;;;2.82;85.83;97750.66;1752295;80;20453;-87
2021/12/11 09:49:11;;;;;;;;;;;;;;;2.90;85.77;97755.80;1754204;80;24993;-87
2021/12/11 09:51:42;;;;;;;;;;;;;;;2.93;85.71;97763.42;1760214;81;22880;-87
2021/12/11 09:54:08;;;;;;;;;;;;;;;3.00;85.64;97768.28;1760261;79;25972;-86
2021/12/11 09:56:39;;;;;;;;;;;;;;;3.00;85.56;97775.55;1768027;80;24666;-87
2021/12/11 09:59:07;;;;;;;;;;;;;;;3.02;85.52;97780.66;1762686;80;20214;-87
2021/12/11 10:01:35;;;;;;;;;;;;;;;3.00;85.44;97796.72;1761182;80;24993;-87
2021/12/11 10:04:03;;;;;;;;;;;;;;;3.00;85.35;97798.01;1765466;79;22654;-87
2021/12/11 10:09:20;;;;;;;;;;;;;;;2.97;85.21;97796.84;1755880;80;24661;-86
2021/12/11 10:11:50;;;;;;;;;;;;;;;2.99;85.12;97797.63;1778505;80;20332;-86
2021/12/11 10:14:18;;;;;;;;;;;;;;;3.03;85.04;97799.13;1781841;80;25658;-86
2021/12/11 10:16:46;;;;;;;;;;;;;;;2.99;84.96;97792.00;1783636;80;22027;-86
2021/12/11 10:19:12;;;;;;;;;;;;;;;3.03;84.93;97796.09;1778240;80;26198;-86
2021/12/11 10:21:43;;;;;;;;;;;;;;;3.05;84.88;97796.87;1781749;80;25254;-85
2021/12/11 10:24:11;;;;;;;;;;;;;;;3.08;84.85;97793.28;1782299;78;20610;-86
2021/12/11 10:26:38;;;;;;;;;;;;;;;3.09;84.85;97797.54;1781155;80;24971;-86
2021/12/11 10:29:09;;;;;;;;;;;;;;;3.12;84.81;97803.83;1778472;78;21995;-86
2021/12/11 10:31:40;;;;;;;;;;;;;;;3.10;84.77;97809.10;1782699;80;26031;-86
2021/12/11 10:34:10;;;;;;;;;;;;;;;3.26;84.76;97815.63;1747784;80;24571;-86
2021/12/11 10:36:38;;;;;;;;;;;;;;;3.40;84.73;97826.09;1762218;80;20189;-86
2021/12/11 10:39:06;;;;;;;;;;;;;;;3.43;84.68;97822.08;1760672;80;25812;-86
2021/12/11 10:41:32;;;;;;;;;;;;;;;3.38;84.61;97821.00;1741195;80;21920;-86
2021/12/11 10:44:03;;;;;;;;;;;;;;;3.30;84.56;97820.56;1759802;81;26886;-86
2021/12/11 10:46:31;;;;;;;;;;;;;;;3.27;84.49;97822.00;1750900;80;24636;-86
2021/12/11 10:48:58;;;;;;;;;;;;;;;3.23;84.40;97819.19;1762566;80;20547;-86
2021/12/11 10:51:29;;;;;;;;;;;;;;;3.25;84.32;97824.30;1752594;81;25224;-86
2021/12/11 10:53:57;;;;;;;;;;;;;;;3.21;84.28;97821.49;1730675;79;22022;-86
2021/12/11 10:56:24;;;;;;;;;;;;;;;3.21;84.21;97817.61;1761718;79;26001;-86
2021/12/11 10:58:55;;;;;;;;;;;;;;;3.19;84.13;97822.02;1755311;80;24539;-86
2021/12/11 11:01:25;;;;;;;;;;;;;;;3.19;84.04;97816.39;1764204;80;20489;-86
2021/12/11 11:03:52;;;;;;;;;;;;;;;3.21;83.98;97818.91;1754668;81;25721;-86
2021/12/11 11:06:19;;;;;;;;;;;;;;;3.19;83.91;97824.14;1762227;80;21975;-86
2021/12/11 11:08:46;;;;;;;;;;;;;;;3.21;83.83;97828.80;1757890;81;26042;-86
2021/12/11 11:11:16;;;;;;;;;;;;;;;3.25;83.75;97837.22;1760088;80;24458;-87
2021/12/11 11:13:42;;;;;;;;;;;;;;;3.29;83.74;97833.56;1717752;82;20236;-86
2021/12/11 11:16:08;;;;;;;;;;;;;;;3.29;83.72;97830.98;1728043;81;24999;-85
2021/12/11 11:18:45;;;;;;;;;;;;;;;3.26;83.66;97832.44;1716369;82;20509;-86
2021/12/11 11:21:15;;;;;;;;;;;;;;;3.29;83.61;97839.57;1706446;82;26045;-85
2021/12/11 11:23:43;;;;;;;;;;;;;;;3.40;83.59;97833.86;1722443;80;24501;-85
2021/12/11 11:26:11;;;;;;;;;;;;;;;3.50;83.57;97841.52;1730333;82;20259;-85
2021/12/11 11:28:38;;;;;;;;;;;;;;;3.48;83.51;97839.49;1752217;80;25671;-85
2021/12/11 11:31:05;;;;;;;;;;;;;;;3.47;83.46;97849.45;1756438;80;21993;-85
2021/12/11 11:33:32;;;;;;;;;;;;;;;3.46;83.41;97850.36;1766871;80;26043;-86
2021/12/11 11:36:00;;;;;;;;;;;;;;;3.47;83.31;97855.92;1753954;79;24405;-86
2021/12/11 11:38:30;;;;;;;;;;;;;;;3.41;83.26;97857.52;1753208;80;20558;-86
2021/12/11 11:40:58;;;;;;;;;;;;;;;3.36;83.17;97864.22;1744012;81;24999;-86
2021/12/11 11:43:25;;;;;;;;;;;;;;;3.41;83.11;97868.31;1753250;80;22111;-87
2021/12/11 11:45:53;;;;;;;;;;;;;;;3.35;83.04;97870.75;1763577;80;25960;-86
2021/12/11 11:48:20;;;;;;;;;;;;;;;3.33;82.98;97864.81;1740088;80;24414;-86
2021/12/11 11:50:47;;;;;;;;;;;;;;;3.36;82.89;97865.97;1735928;80;20608;-86
2021/12/11 11:53:14;;;;;;;;;;;;;;;3.33;82.84;97860.94;1739090;80;25726;-86
2021/12/11 11:55:44;;;;;;;;;;;;;;;3.30;82.73;97864.98;1698884;81;22694;-86
2021/12/11 11:58:10;;;;;;;;;;;;;;;3.30;82.65;97870.98;1725797;81;26031;-86
2021/12/11 12:00:41;;;;;;;;;;;;;;;3.35;82.59;97871.59;1735394;81;24452;-86
2021/12/11 12:03:12;;;;;;;;;;;;;;;3.38;82.58;97873.20;1721878;82;20249;-85
2021/12/11 12:05:41;;;;;;;;;;;;;;;3.37;82.53;97874.11;1714214;80;24988;-85
2021/12/11 12:08:08;;;;;;;;;;;;;;;3.33;82.48;97877.73;1728881;81;22011;-86
2021/12/11 12:10:34;;;;;;;;;;;;;;;3.33;82.45;97876.45;1726202;82;26052;-86
2021/12/11 12:13:06;;;;;;;;;;;;;;;3.38;82.43;97877.54;1730469;81;24435;-86
2021/12/11 12:15:31;;;;;;;;;;;;;;;3.38;82.39;97878.38;1728598;80;20294;-86
2021/12/11 12:17:58;;;;;;;;;;;;;;;3.46;82.40;97881.85;1739761;81;25110;-86
2021/12/11 12:20:26;;;;;;;;;;;;;;;3.40;82.32;97870.52;1737968;81;22132;-85
2021/12/11 12:22:53;;;;;;;;;;;;;;;3.36;82.30;97873.27;1746602;81;26028;-86
2021/12/11 12:25:19;;;;;;;;;;;;;;;3.36;82.24;97876.31;1754428;81;24122;-86
2021/12/11 12:28:01;;;;;;;;;;;;;;;3.35;82.21;97874.63;1736416;81;20233;-86
2021/12/11 12:30:16;;;;;;;;;;;;;;;3.32;82.14;97882.11;1737118;81;25214;-86
2021/12/11 12:32:42;;;;;;;;;;;;;;;3.31;82.09;97875.70;1715544;80;22164;-86
2021/12/11 12:35:10;;;;;;;;;;;;;;;3.33;82.02;97882.45;1721205;82;26921;-86
2021/12/11 12:37:39;;;;;;;;;;;;;;;3.27;81.96;97887.13;1692602;83;24487;-86
2021/12/11 12:40:08;;;;;;;;;;;;;;;3.21;81.87;97888.26;1693006;83;20154;-86
2021/12/11 12:42:37;;;;;;;;;;;;;;;3.25;81.79;97883.77;1764359;80;25137;-86
2021/12/11 12:45:23;;;;;;;;;;;;;;;3.33;81.79;97887.63;1754024;80;22025;-86
2021/12/11 12:47:54;;;;;;;;;;;;;;;3.36;81.78;97880.19;1763354;81;26083;-86
2021/12/11 12:50:21;;;;;;;;;;;;;;;3.40;81.78;97890.75;1764724;80;24437;-86
2021/12/11 12:52:47;;;;;;;;;;;;;;;3.40;81.72;97892.05;1758721;81;20395;-86
2021/12/11 12:55:15;;;;;;;;;;;;;;;3.37;81.66;97888.34;1766345;81;25053;-86
2021/12/11 12:57:43;;;;;;;;;;;;;;;3.40;81.61;97888.63;1761671;81;21971;-86
2021/12/11 13:00:11;;;;;;;;;;;;;;;3.39;81.56;97890.37;1766425;81;25996;-86
2021/12/11 13:02:40;;;;;;;;;;;;;;;3.44;81.49;97892.27;1764238;81;24500;-86
2021/12/11 13:05:08;;;;;;;;;;;;;;;3.48;81.45;97896.85;1760913;81;21168;-86
2021/12/11 13:07:37;;;;;;;;;;;;;;;3.44;81.35;97890.98;1759219;81;25054;-86
2021/12/11 13:10:06;;;;;;;;;;;;;;;3.42;81.26;97893.27;1758211;79;22603;-86
2021/12/11 13:12:34;;;;;;;;;;;;;;;3.39;81.18;97899.42;1762338;79;26021;-85
2021/12/11 13:15:02;;;;;;;;;;;;;;;3.40;81.13;97903.69;1754617;80;25159;-86